Home > Products > Valid Products > TAF

000
FTUS44 KOUN 182224 AAA
TAFLAW
TAF AMD
KLAW 182224Z 1822/1918 04006KT P6SM OVC008
     FM190600 09005KT 4SM BR OVC004
      TEMPO 1908/1912 2SM BR OVC003=



000
FTUS44 KOUN 182224 AAA
TAFLAW
TAF AMD
KLAW 182224Z 1822/1918 04006KT P6SM OVC008
     FM190600 09005KT 4SM BR OVC004
      TEMPO 1908/1912 2SM BR OVC003=



000
FTUS44 KOUN 182222 AAA
TAFPNC
TAF AMD
KPNC 182222Z 1822/1918 01005KT P6SM BKN013
     FM190200 03004KT P6SM OVC007
     FM190400 04005KT 2SM BR OVC004
      TEMPO 1906/1910 1/2SM FG OVC002
     FM191000 01004KT 1SM BR OVC003
      TEMPO 1910/1914 1/2SM FG OVC002
     FM191400 11005KT 2SM BR OVC004=



000
FTUS44 KOUN 182222 AAA
TAFPNC
TAF AMD
KPNC 182222Z 1822/1918 01005KT P6SM BKN013
     FM190200 03004KT P6SM OVC007
     FM190400 04005KT 2SM BR OVC004
      TEMPO 1906/1910 1/2SM FG OVC002
     FM191000 01004KT 1SM BR OVC003
      TEMPO 1910/1914 1/2SM FG OVC002
     FM191400 11005KT 2SM BR OVC004=



000
FTUS44 KOUN 181950 AAA
TAFWWR
TAF AMD
KWWR 181950Z 1820/1918 35004KT P6SM OVC004
     FM190300 07006KT 6SM BR OVC010
      TEMPO 1910/1914 1 1/2SM BR OVC003
     FM191400 18005KT 3SM BR OVC003=



000
FTUS44 KOUN 181950 AAA
TAFWWR
TAF AMD
KWWR 181950Z 1820/1918 35004KT P6SM OVC004
     FM190300 07006KT 6SM BR OVC010
      TEMPO 1910/1914 1 1/2SM BR OVC003
     FM191400 18005KT 3SM BR OVC003=



000
FTUS44 KOUN 181746
TAFOKC
TAF
KOKC 181746Z 1818/1918 14003KT 3SM -DZ BR OVC004
     FM190200 04007KT 6SM BR OVC012
     FM190900 02006KT 3SM BR OVC010
      TEMPO 1910/1914 1 1/2SM BR OVC005
     FM191400 05005KT 4SM BR OVC006=



000
FTUS44 KOUN 181746
TAFOUN
TAF
KOUN 181746Z 1818/1918 14006KT 5SM BR OVC006
     FM190200 04007KT 6SM BR OVC012
     FM190900 03005KT 3SM BR OVC010
      TEMPO 1910/1914 1 1/2SM BR OVC005
     FM191400 05005KT 4SM BR OVC006=



000
FTUS44 KOUN 181746
TAFGAG
TAF
KGAG 181746Z 1818/1918 02003KT 2SM BR OVC004
     FM182200 05006KT 4SM BR OVC012
     FM190600 08005KT 4SM BR OVC004
      TEMPO 1910/1914 1 1/2SM BR OVC003
     FM191400 18005KT 3SM BR OVC003=



000
FTUS44 KOUN 181746
TAFHBR
TAF
KHBR 181746Z 1818/1918 00000KT P6SM BKN006 OVC020
     FM190600 04006KT 4SM BR OVC004
      TEMPO 1909/1913 1SM BR OVC004
     FM191500 12005KT 4SM BR OVC005=



000
FTUS44 KOUN 181746
TAFPNC
TAF
KPNC 181746Z 1818/1918 12006KT 5SM BR OVC003
     FM190400 04005KT 2SM BR OVC004
      TEMPO 1906/1910 1/2SM FG OVC002
     FM191000 01004KT 1SM BR OVC003
      TEMPO 1910/1914 1/2SM FG OVC002
     FM191400 11005KT 2SM BR OVC004=



000
FTUS44 KOUN 181746
TAFLAW
TAF
KLAW 181746Z 1818/1918 08006KT 6SM BR OVC004
     FM190600 09005KT 4SM BR OVC004
      TEMPO 1908/1912 2SM BR OVC003=



000
FTUS44 KOUN 181746
TAFSPS
TAF
KSPS 181746Z 1818/1918 06005KT 2SM BR OVC004
     FM182100 04005KT 6SM BR OVC007
     FM190600 09005KT 4SM BR OVC004
      TEMPO 1907/1911 2SM BR OVC003=



000
FTUS44 KOUN 181746
TAFWWR
TAF
KWWR 181746Z 1818/1918 04005KT 3SM BR OVC004
      TEMPO 1818/1822 1SM BR OVC002
     FM190000 07006KT 4SM BR OVC010
      TEMPO 1910/1914 1 1/2SM BR OVC003
     FM191400 18005KT 3SM BR OVC003=



000
FTUS44 KOUN 181746
TAFWWR
TAF
KWWR 181746Z 1818/1918 04005KT 3SM BR OVC004
      TEMPO 1818/1822 1SM BR OVC002
     FM190000 07006KT 4SM BR OVC010
      TEMPO 1910/1914 1 1/2SM BR OVC003
     FM191400 18005KT 3SM BR OVC003=



000
FTUS44 KOUN 181746
TAFGAG
TAF
KGAG 181746Z 1818/1918 02003KT 2SM BR OVC004
     FM182200 05006KT 4SM BR OVC012
     FM190600 08005KT 4SM BR OVC004
      TEMPO 1910/1914 1 1/2SM BR OVC003
     FM191400 18005KT 3SM BR OVC003=



000
FTUS44 KOUN 181746
TAFSPS
TAF
KSPS 181746Z 1818/1918 06005KT 2SM BR OVC004
     FM182100 04005KT 6SM BR OVC007
     FM190600 09005KT 4SM BR OVC004
      TEMPO 1907/1911 2SM BR OVC003=



000
FTUS44 KOUN 181746
TAFOUN
TAF
KOUN 181746Z 1818/1918 14006KT 5SM BR OVC006
     FM190200 04007KT 6SM BR OVC012
     FM190900 03005KT 3SM BR OVC010
      TEMPO 1910/1914 1 1/2SM BR OVC005
     FM191400 05005KT 4SM BR OVC006=



000
FTUS44 KOUN 181746
TAFHBR
TAF
KHBR 181746Z 1818/1918 00000KT P6SM BKN006 OVC020
     FM190600 04006KT 4SM BR OVC004
      TEMPO 1909/1913 1SM BR OVC004
     FM191500 12005KT 4SM BR OVC005=



000
FTUS44 KOUN 181746
TAFOKC
TAF
KOKC 181746Z 1818/1918 14003KT 3SM -DZ BR OVC004
     FM190200 04007KT 6SM BR OVC012
     FM190900 02006KT 3SM BR OVC010
      TEMPO 1910/1914 1 1/2SM BR OVC005
     FM191400 05005KT 4SM BR OVC006=



000
FTUS44 KOUN 181746
TAFPNC
TAF
KPNC 181746Z 1818/1918 12006KT 5SM BR OVC003
     FM190400 04005KT 2SM BR OVC004
      TEMPO 1906/1910 1/2SM FG OVC002
     FM191000 01004KT 1SM BR OVC003
      TEMPO 1910/1914 1/2SM FG OVC002
     FM191400 11005KT 2SM BR OVC004=



000
FTUS44 KOUN 181746
TAFLAW
TAF
KLAW 181746Z 1818/1918 08006KT 6SM BR OVC004
     FM190600 09005KT 4SM BR OVC004
      TEMPO 1908/1912 2SM BR OVC003=



000
FTUS44 KOUN 181524 AAA
TAFWWR
TAF AMD
KWWR 181524Z 1815/1912 05003KT 1/4SM FG OVC002
     FM181800 02003KT 3SM BR OVC004
     FM182200 05006KT 6SM BR OVC012
     FM190400 08005KT 4SM BR OVC004=



000
FTUS44 KOUN 181524 AAA
TAFWWR
TAF AMD
KWWR 181524Z 1815/1912 05003KT 1/4SM FG OVC002
     FM181800 02003KT 3SM BR OVC004
     FM182200 05006KT 6SM BR OVC012
     FM190400 08005KT 4SM BR OVC004=



000
FTUS44 KOUN 181524 AAA
TAFGAG
TAF AMD
KGAG 181524Z 1815/1912 00000KT 4SM BR OVC004
      TEMPO 1815/1818 2SM BR BKN002 OVC010
     FM181800 02003KT 5SM BR OVC004
     FM182200 05006KT 6SM BR OVC012
     FM190400 08005KT 4SM BR OVC004=



000
FTUS44 KOUN 181524 AAA
TAFGAG
TAF AMD
KGAG 181524Z 1815/1912 00000KT 4SM BR OVC004
      TEMPO 1815/1818 2SM BR BKN002 OVC010
     FM181800 02003KT 5SM BR OVC004
     FM182200 05006KT 6SM BR OVC012
     FM190400 08005KT 4SM BR OVC004=



000
FTUS44 KOUN 181523 AAB
TAFOUN
TAF AMD
KOUN 181523Z 1815/1912 14006KT 5SM BR OVC004
      TEMPO 1815/1818 3SM BR OVC004
     FM190200 04007KT 3/4SM BR OVC004=



000
FTUS44 KOUN 181522 AAA
TAFOKC
TAF AMD
KOKC 181522Z 1815/1912 14003KT 3SM -DZ BR OVC004
     FM190200 04007KT 3/4SM BR OVC004=



000
FTUS44 KOUN 181522 AAA
TAFOKC
TAF AMD
KOKC 181522Z 1815/1912 14003KT 3SM -DZ BR OVC004
     FM190200 04007KT 3/4SM BR OVC004=



000
FTUS44 KOUN 181120
TAFPNC
TAF
KPNC 181120Z 1812/1912 12006KT 2SM BR OVC003
     FM182200 03005KT 4SM BR OVC009
     FM190300 04005KT 2SM BR OVC004=



000
FTUS44 KOUN 181120
TAFLAW
TAF
KLAW 181120Z 1812/1912 12006KT 3SM BR OVC003
      TEMPO 1812/1814 3/4SM BR
     FM181900 06005KT 4SM BR OVC004=



000
FTUS44 KOUN 181120
TAFGAG
TAF
KGAG 181120Z 1812/1912 00000KT 2SM BR OVC004
      TEMPO 1817/1818 4SM BR
     FM181800 02003KT 5SM BR OVC004
     FM182200 05006KT 6SM BR OVC012
     FM190400 08005KT 4SM BR OVC004=



000
FTUS44 KOUN 181120
TAFLAW
TAF
KLAW 181120Z 1812/1912 12006KT 3SM BR OVC003
      TEMPO 1812/1814 3/4SM BR
     FM181900 06005KT 4SM BR OVC004=



000
FTUS44 KOUN 181120
TAFWWR
TAF
KWWR 181120Z 1812/1912 07004KT 3/4SM BR OVC002
      TEMPO 1817/1818 3SM BR
     FM181800 02003KT 5SM BR OVC004
     FM182200 05006KT 6SM BR OVC012
     FM190400 08005KT 4SM BR OVC004=



000
FTUS44 KOUN 181120
TAFGAG
TAF
KGAG 181120Z 1812/1912 00000KT 2SM BR OVC004
      TEMPO 1817/1818 4SM BR
     FM181800 02003KT 5SM BR OVC004
     FM182200 05006KT 6SM BR OVC012
     FM190400 08005KT 4SM BR OVC004=



000
FTUS44 KOUN 181120
TAFOUN
TAF
KOUN 181120Z 1812/1912 15003KT 2SM BR OVC002
      TEMPO 1812/1815 3/4SM -DZ BR
     FM182000 04004KT 3SM BR OVC004
     FM190200 04007KT 3/4SM BR OVC004=



000
FTUS44 KOUN 181120
TAFWWR
TAF
KWWR 181120Z 1812/1912 07004KT 3/4SM BR OVC002
      TEMPO 1817/1818 3SM BR
     FM181800 02003KT 5SM BR OVC004
     FM182200 05006KT 6SM BR OVC012
     FM190400 08005KT 4SM BR OVC004=



000
FTUS44 KOUN 181120
TAFHBR
TAF
KHBR 181120Z 1812/1912 00000KT 4SM BR OVC003
      TEMPO 1812/1814 2SM BR
     FM190200 04006KT 2SM BR OVC002=



000
FTUS44 KOUN 181120
TAFPNC
TAF
KPNC 181120Z 1812/1912 12006KT 2SM BR OVC003
     FM182200 03005KT 4SM BR OVC009
     FM190300 04005KT 2SM BR OVC004=



000
FTUS44 KOUN 181120
TAFSPS
TAF
KSPS 181120Z 1812/1912 13009G23KT 1 1/2SM -RA BR OVC003
     FM181700 04005KT 6SM BR OVC004
     FM182200 04005KT 6SM BR OVC007
     FM190200 02005KT 3SM BR OVC003=



000
FTUS44 KOUN 181120
TAFOKC
TAF
KOKC 181120Z 1812/1912 15003KT 1SM -DZ BR VV002
      TEMPO 1812/1815 3/4SM -DZ BR
     FM182000 04004KT 3SM BR OVC004
     FM190200 04007KT 3/4SM BR OVC004=



000
FTUS44 KOUN 181120
TAFSPS
TAF
KSPS 181120Z 1812/1912 13009G23KT 1 1/2SM -RA BR OVC003
     FM181700 04005KT 6SM BR OVC004
     FM182200 04005KT 6SM BR OVC007
     FM190200 02005KT 3SM BR OVC003=



000
FTUS44 KOUN 181120
TAFHBR
TAF
KHBR 181120Z 1812/1912 00000KT 4SM BR OVC003
      TEMPO 1812/1814 2SM BR
     FM190200 04006KT 2SM BR OVC002=



000
FTUS44 KOUN 181120
TAFOUN
TAF
KOUN 181120Z 1812/1912 15003KT 2SM BR OVC002
      TEMPO 1812/1815 3/4SM -DZ BR
     FM182000 04004KT 3SM BR OVC004
     FM190200 04007KT 3/4SM BR OVC004=



000
FTUS44 KOUN 181009 AAA
TAFWWR
TAF AMD
KWWR 181009Z 1810/1906 14007KT 1/2SM -DZ FG OVC002
     FM181100 04006KT 5SM -DZ BR OVC004=



000
FTUS44 KOUN 181009 AAA
TAFWWR
TAF AMD
KWWR 181009Z 1810/1906 14007KT 1/2SM -DZ FG OVC002
     FM181100 04006KT 5SM -DZ BR OVC004=



000
FTUS44 KOUN 180530
TAFHBR
TAF
KHBR 180530Z 1806/1906 16007KT 3SM BR OVC003
      TEMPO 1806/1808 1/2SM -DZ FG VV002
     FM181400 03007KT 2SM BR OVC004=



000
FTUS44 KOUN 180530
TAFOUN
TAF
KOUN 180530Z 1806/1906 14006KT 3SM -DZ BR OVC004
     FM181600 03007KT 5SM BR OVC004=



000
FTUS44 KOUN 180530
TAFSPS
TAF
KSPS 180530Z 1806/1906 12007KT 6SM BR OVC004
     FM181600 04005KT 6SM BR OVC004=



000
FTUS44 KOUN 180530
TAFOKC
TAF
KOKC 180530Z 1806/1906 13006KT 3SM -DZ BR OVC004
     FM181600 03007KT 5SM BR OVC004=



000
FTUS44 KOUN 180530
TAFWWR
TAF
KWWR 180530Z 1806/1906 14007KT 3SM -DZ BR OVC003
      TEMPO 1806/1808 -RAPL
     FM181100 04006KT 5SM -DZ BR OVC004=



000
FTUS44 KOUN 180530
TAFGAG
TAF
KGAG 180530Z 1806/1906 17007KT 5SM -DZ BR OVC003
     FM181100 04006KT 5SM -DZ BR OVC004=



000
FTUS44 KOUN 180530
TAFPNC
TAF
KPNC 180530Z 1806/1906 06006KT 2SM -DZ BR OVC005=



000
FTUS44 KOUN 180530
TAFLAW
TAF
KLAW 180530Z 1806/1906 12007KT 6SM BR OVC004
     FM181600 04005KT P6SM OVC004=



000
FTUS44 KOUN 180530
TAFSPS
TAF
KSPS 180530Z 1806/1906 12007KT 6SM BR OVC004
     FM181600 04005KT 6SM BR OVC004=



000
FTUS44 KOUN 180530
TAFGAG
TAF
KGAG 180530Z 1806/1906 17007KT 5SM -DZ BR OVC003
     FM181100 04006KT 5SM -DZ BR OVC004=



000
FTUS44 KOUN 180530
TAFOUN
TAF
KOUN 180530Z 1806/1906 14006KT 3SM -DZ BR OVC004
     FM181600 03007KT 5SM BR OVC004=



000
FTUS44 KOUN 180530
TAFWWR
TAF
KWWR 180530Z 1806/1906 14007KT 3SM -DZ BR OVC003
      TEMPO 1806/1808 -RAPL
     FM181100 04006KT 5SM -DZ BR OVC004=



000
FTUS44 KOUN 180530
TAFHBR
TAF
KHBR 180530Z 1806/1906 16007KT 3SM BR OVC003
      TEMPO 1806/1808 1/2SM -DZ FG VV002
     FM181400 03007KT 2SM BR OVC004=



000
FTUS44 KOUN 180530
TAFOKC
TAF
KOKC 180530Z 1806/1906 13006KT 3SM -DZ BR OVC004
     FM181600 03007KT 5SM BR OVC004=



000
FTUS44 KOUN 180530
TAFLAW
TAF
KLAW 180530Z 1806/1906 12007KT 6SM BR OVC004
     FM181600 04005KT P6SM OVC004=



000
FTUS44 KOUN 180530
TAFPNC
TAF
KPNC 180530Z 1806/1906 06006KT 2SM -DZ BR OVC005=



000
FTUS44 KOUN 180229 AAA
TAFPNC
TAF AMD
KPNC 180229Z 1802/1824 09007KT 2SM -DZ BR OVC004
     FM181800 01005KT 4SM -DZ BR OVC012=



000
FTUS44 KOUN 180229 AAA
TAFPNC
TAF AMD
KPNC 180229Z 1802/1824 09007KT 2SM -DZ BR OVC004
     FM181800 01005KT 4SM -DZ BR OVC012=



000
FTUS44 KOUN 180036 AAB
TAFSPS
TAF AMD
KSPS 180036Z 1801/1824 13010KT 4SM -DZ BR OVC004
     FM181800 36007KT 4SM BR OVC012=



000
FTUS44 KOUN 180036 AAB
TAFSPS
TAF AMD
KSPS 180036Z 1801/1824 13010KT 4SM -DZ BR OVC004
     FM181800 36007KT 4SM BR OVC012=



000
FTUS44 KOUN 180015 AAA
TAFSPS
TAF AMD
KSPS 180015Z 1800/1824 12008KT P6SM OVC006
     FM180300 14008KT 4SM BR OVC004
     FM181800 36007KT 4SM BR OVC012=



000
FTUS44 KOUN 180015 AAA
TAFSPS
TAF AMD
KSPS 180015Z 1800/1824 12008KT P6SM OVC006
     FM180300 14008KT 4SM BR OVC004
     FM181800 36007KT 4SM BR OVC012=



000
FTUS44 KOUN 180013 AAA
TAFWWR
TAF AMD
KWWR 180013Z 1800/1824 12010KT 2SM -DZ BR OVC003
     FM181800 04006KT 4SM BR OVC012=



000
FTUS44 KOUN 180013 AAA
TAFWWR
TAF AMD
KWWR 180013Z 1800/1824 12010KT 2SM -DZ BR OVC003
     FM181800 04006KT 4SM BR OVC012=



000
FTUS44 KOUN 172334
TAFWWR
TAF
KWWR 172334Z 1800/1824 15010KT 4SM BR OVC009
     FM180900 35006KT 2SM -DZ BR OVC005
     FM181800 04006KT 4SM BR OVC012=



000
FTUS44 KOUN 172334
TAFWWR
TAF
KWWR 172334Z 1800/1824 15010KT 4SM BR OVC009
     FM180900 35006KT 2SM -DZ BR OVC005
     FM181800 04006KT 4SM BR OVC012=



000
FTUS44 KOUN 172334
TAFSPS
TAF
KSPS 172334Z 1800/1824 12008KT P6SM SCT007 OVC020
      TEMPO 1800/1803 4SM -DZ OVC010
     FM180300 14008KT 4SM BR OVC004
     FM181800 36007KT 4SM BR OVC012=



000
FTUS44 KOUN 172334
TAFLAW
TAF
KLAW 172334Z 1800/1824 11010KT 4SM -DZ BR OVC004
     FM181800 04005KT 4SM BR OVC012=



000
FTUS44 KOUN 172334
TAFOKC
TAF
KOKC 172334Z 1800/1824 11008KT 2SM -RA BR OVC006
     FM180400 13006KT 2SM -DZ BR OVC003
     FM181800 01007KT 3SM -DZ BR OVC012=



000
FTUS44 KOUN 172334
TAFPNC
TAF
KPNC 172334Z 1800/1824 11009KT 6SM -RA OVC040
      TEMPO 1800/1802 3SM -RA BKN015
     FM180200 10010KT 3SM -DZ BR OVC010
     FM180500 10007KT 2SM -DZ BR OVC004
     FM181800 01005KT 4SM -DZ BR OVC012=



000
FTUS44 KOUN 172334
TAFHBR
TAF
KHBR 172334Z 1800/1824 15009KT 2SM BR OVC005
     FM180400 14007KT 2SM -DZ BR OVC003
     FM181800 02007KT 4SM BR OVC012=



000
FTUS44 KOUN 172334
TAFGAG
TAF
KGAG 172334Z 1800/1824 15010KT 4SM BR OVC009
     FM180900 35006KT 2SM -DZ BR OVC005
     FM181800 04006KT 4SM BR OVC012=



000
FTUS44 KOUN 172334
TAFGAG
TAF
KGAG 172334Z 1800/1824 15010KT 4SM BR OVC009
     FM180900 35006KT 2SM -DZ BR OVC005
     FM181800 04006KT 4SM BR OVC012=



000
FTUS44 KOUN 172334
TAFOKC
TAF
KOKC 172334Z 1800/1824 11008KT 2SM -RA BR OVC006
     FM180400 13006KT 2SM -DZ BR OVC003
     FM181800 01007KT 3SM -DZ BR OVC012=



000
FTUS44 KOUN 172334
TAFPNC
TAF
KPNC 172334Z 1800/1824 11009KT 6SM -RA OVC040
      TEMPO 1800/1802 3SM -RA BKN015
     FM180200 10010KT 3SM -DZ BR OVC010
     FM180500 10007KT 2SM -DZ BR OVC004
     FM181800 01005KT 4SM -DZ BR OVC012=



000
FTUS44 KOUN 172334
TAFOUN
TAF
KOUN 172334Z 1800/1824 11008KT 2SM -RA BR OVC006
     FM180400 13006KT 2SM -DZ BR OVC003
     FM181800 01007KT 3SM -DZ BR OVC012=



000
FTUS44 KOUN 172334
TAFOUN
TAF
KOUN 172334Z 1800/1824 11008KT 2SM -RA BR OVC006
     FM180400 13006KT 2SM -DZ BR OVC003
     FM181800 01007KT 3SM -DZ BR OVC012=



000
FTUS44 KOUN 172334
TAFHBR
TAF
KHBR 172334Z 1800/1824 15009KT 2SM BR OVC005
     FM180400 14007KT 2SM -DZ BR OVC003
     FM181800 02007KT 4SM BR OVC012=



000
FTUS44 KOUN 172334
TAFLAW
TAF
KLAW 172334Z 1800/1824 11010KT 4SM -DZ BR OVC004
     FM181800 04005KT 4SM BR OVC012=



000
FTUS44 KOUN 172334
TAFSPS
TAF
KSPS 172334Z 1800/1824 12008KT P6SM SCT007 OVC020
      TEMPO 1800/1803 4SM -DZ OVC010
     FM180300 14008KT 4SM BR OVC004
     FM181800 36007KT 4SM BR OVC012=



000
FTUS44 KOUN 171743
TAFGAG
TAF
KGAG 171743Z 1718/1818 15012KT P6SM OVC040
      TEMPO 1718/1722 3SM -RA OVC020
     FM172200 15010KT 4SM BR OVC015
      TEMPO 1805/1809 3SM -RA OVC007
     FM180900 04006KT 2SM BR OVC005 PROB30 1809/1815 1SM -DZ BR
      OVC001=



000
FTUS44 KOUN 171743
TAFWWR
TAF
KWWR 171743Z 1718/1818 15012KT P6SM OVC040
      TEMPO 1718/1722 3SM -RA OVC020
     FM172200 15010KT 4SM BR OVC015
      TEMPO 1805/1809 3SM -RA OVC007
     FM180900 04006KT 2SM BR OVC005 PROB30 1809/1815 1SM -DZ BR
      OVC001=



000
FTUS44 KOUN 171743
TAFSPS
TAF
KSPS 171743Z 1718/1818 12014KT P6SM OVC050
      TEMPO 1718/1722 5SM -RA OVC040
     FM172200 12008KT P6SM OVC020
      TEMPO 1722/1802 4SM -RA OVC010
     FM180200 12008KT 5SM -DZ BR OVC010=



000
FTUS44 KOUN 171743
TAFOKC
TAF
KOKC 171743Z 1718/1818 12010KT P6SM OVC060
      TEMPO 1718/1722 5SM -RA OVC040
     FM172200 12009KT 4SM -RA BR OVC020
     FM180100 14007KT 3SM -RA BR OVC009
     FM180600 15006KT 1SM -DZ BR OVC003
      TEMPO 1811/1815 1/2SM FG OVC001=



000
FTUS44 KOUN 171743
TAFPNC
TAF
KPNC 171743Z 1718/1818 10007KT P6SM OVC070
      TEMPO 1718/1722 5SM -RA OVC040
     FM172200 11009KT 6SM -RA OVC040
      TEMPO 1722/1802 3SM -RA OVC015
     FM180200 10010KT 3SM -DZ BR OVC010
     FM180400 10009KT 2SM -DZ BR OVC004
      TEMPO 1809/1813 -FZDZ=



000
FTUS44 KOUN 171743
TAFLAW
TAF
KLAW 171743Z 1718/1818 13012KT P6SM OVC050
      TEMPO 1718/1721 5SM -RA OVC040
     FM172200 11010KT 6SM -DZ BR OVC015
     FM180200 11008KT 4SM -DZ BR OVC004
      TEMPO 1810/1814 1SM -DZ BR OVC001=



000
FTUS44 KOUN 171743
TAFOUN
TAF
KOUN 171743Z 1718/1818 12010KT P6SM OVC060
      TEMPO 1718/1722 5SM -RA OVC040
     FM172200 12009KT 4SM -RA BR OVC020
     FM180100 14007KT 3SM -RA BR OVC009
     FM180600 15006KT 1SM -DZ BR OVC003
      TEMPO 1811/1815 1/2SM FG OVC001=



000
FTUS44 KOUN 171743
TAFHBR
TAF
KHBR 171743Z 1718/1818 14015KT P6SM OVC050
      TEMPO 1718/1722 5SM -RA OVC040
     FM172300 15013KT P6SM OVC015
     FM180300 14010KT 4SM -DZ BR OVC009=



000
FTUS44 KOUN 171743
TAFOUN
TAF
KOUN 171743Z 1718/1818 12010KT P6SM OVC060
      TEMPO 1718/1722 5SM -RA OVC040
     FM172200 12009KT 4SM -RA BR OVC020
     FM180100 14007KT 3SM -RA BR OVC009
     FM180600 15006KT 1SM -DZ BR OVC003
      TEMPO 1811/1815 1/2SM FG OVC001=



000
FTUS44 KOUN 171743
TAFLAW
TAF
KLAW 171743Z 1718/1818 13012KT P6SM OVC050
      TEMPO 1718/1721 5SM -RA OVC040
     FM172200 11010KT 6SM -DZ BR OVC015
     FM180200 11008KT 4SM -DZ BR OVC004
      TEMPO 1810/1814 1SM -DZ BR OVC001=



000
FTUS44 KOUN 171743
TAFGAG
TAF
KGAG 171743Z 1718/1818 15012KT P6SM OVC040
      TEMPO 1718/1722 3SM -RA OVC020
     FM172200 15010KT 4SM BR OVC015
      TEMPO 1805/1809 3SM -RA OVC007
     FM180900 04006KT 2SM BR OVC005 PROB30 1809/1815 1SM -DZ BR
      OVC001=



000
FTUS44 KOUN 171743
TAFWWR
TAF
KWWR 171743Z 1718/1818 15012KT P6SM OVC040
      TEMPO 1718/1722 3SM -RA OVC020
     FM172200 15010KT 4SM BR OVC015
      TEMPO 1805/1809 3SM -RA OVC007
     FM180900 04006KT 2SM BR OVC005 PROB30 1809/1815 1SM -DZ BR
      OVC001=



000
FTUS44 KOUN 171743
TAFPNC
TAF
KPNC 171743Z 1718/1818 10007KT P6SM OVC070
      TEMPO 1718/1722 5SM -RA OVC040
     FM172200 11009KT 6SM -RA OVC040
      TEMPO 1722/1802 3SM -RA OVC015
     FM180200 10010KT 3SM -DZ BR OVC010
     FM180400 10009KT 2SM -DZ BR OVC004
      TEMPO 1809/1813 -FZDZ=



000
FTUS44 KOUN 171743
TAFSPS
TAF
KSPS 171743Z 1718/1818 12014KT P6SM OVC050
      TEMPO 1718/1722 5SM -RA OVC040
     FM172200 12008KT P6SM OVC020
      TEMPO 1722/1802 4SM -RA OVC010
     FM180200 12008KT 5SM -DZ BR OVC010=



000
FTUS44 KOUN 171743
TAFHBR
TAF
KHBR 171743Z 1718/1818 14015KT P6SM OVC050
      TEMPO 1718/1722 5SM -RA OVC040
     FM172300 15013KT P6SM OVC015
     FM180300 14010KT 4SM -DZ BR OVC009=



000
FTUS44 KOUN 171743
TAFOKC
TAF
KOKC 171743Z 1718/1818 12010KT P6SM OVC060
      TEMPO 1718/1722 5SM -RA OVC040
     FM172200 12009KT 4SM -RA BR OVC020
     FM180100 14007KT 3SM -RA BR OVC009
     FM180600 15006KT 1SM -DZ BR OVC003
      TEMPO 1811/1815 1/2SM FG OVC001=



000
FTUS44 KOUN 171147
TAFSPS
TAF
KSPS 171147Z 1712/1812 11006KT P6SM VCSH OVC060
     FM171600 14012KT P6SM OVC025
     FM172000 12008KT P6SM OVC010
     FM180000 13009KT 2SM -DZ BR OVC009
     FM180500 14009KT 3SM BR OVC004=



000
FTUS44 KOUN 171147
TAFHBR
TAF
KHBR 171147Z 1712/1812 09008KT P6SM VCSH OVC060
     FM171600 14015KT P6SM OVC025
     FM172200 15013KT 6SM BR OVC010
     FM180200 14010KT 3SM -DZ BR OVC009=



000
FTUS44 KOUN 171147
TAFLAW
TAF
KLAW 171147Z 1712/1812 10007KT P6SM -RA OVC070
     FM171600 14015KT P6SM VCSH OVC025
     FM172100 15013KT 6SM BR OVC010
     FM180100 14010KT 4SM -DZ BR OVC009
     FM180600 11005KT 2SM -DZ BR OVC004=



000
FTUS44 KOUN 171147
TAFGAG
TAF
KGAG 171147Z 1712/1812 17012KT P6SM OVC050
     FM171600 15012KT P6SM VCSH OVC025
     FM172300 16011KT P6SM OVC015
     FM180200 16008KT 5SM BR OVC010
     FM180600 14009KT 4SM BR OVC007=



000
FTUS44 KOUN 171147
TAFOUN
TAF
KOUN 171147Z 1712/1812 15004KT P6SM OVC070
     FM171600 12010KT 6SM -RA OVC050
     FM171900 14009KT 4SM -RA OVC015
     FM180200 14007KT 3SM BR OVC007
     FM180600 15006KT 1SM -DZ BR OVC003=



000
FTUS44 KOUN 171147
TAFWWR
TAF
KWWR 171147Z 1712/1812 15010KT P6SM OVC050
     FM171600 15012KT P6SM VCSH OVC025
     FM172300 16011KT P6SM OVC015
     FM180200 16008KT 5SM BR OVC010
     FM180600 14009KT 4SM BR OVC007=



000
FTUS44 KOUN 171147
TAFLAW
TAF
KLAW 171147Z 1712/1812 10007KT P6SM -RA OVC070
     FM171600 14015KT P6SM VCSH OVC025
     FM172100 15013KT 6SM BR OVC010
     FM180100 14010KT 4SM -DZ BR OVC009
     FM180600 11005KT 2SM -DZ BR OVC004=



000
FTUS44 KOUN 171147
TAFSPS
TAF
KSPS 171147Z 1712/1812 11006KT P6SM VCSH OVC060
     FM171600 14012KT P6SM OVC025
     FM172000 12008KT P6SM OVC010
     FM180000 13009KT 2SM -DZ BR OVC009
     FM180500 14009KT 3SM BR OVC004=



000
FTUS44 KOUN 171147
TAFPNC
TAF
KPNC 171147Z 1712/1812 10007KT P6SM VCSH BKN080
     FM172000 12008KT 6SM -RA BKN035 OVC250
      TEMPO 1722/1802 4SM -RA OVC015
     FM180200 11009KT 3SM -DZ BR OVC010
     FM180400 11009KT 1SM -DZ BR OVC004=



000
FTUS44 KOUN 171147
TAFHBR
TAF
KHBR 171147Z 1712/1812 09008KT P6SM VCSH OVC060
     FM171600 14015KT P6SM OVC025
     FM172200 15013KT 6SM BR OVC010
     FM180200 14010KT 3SM -DZ BR OVC009=



000
FTUS44 KOUN 171147
TAFOKC
TAF
KOKC 171147Z 1712/1812 14006KT P6SM VCSH OVC060
     FM171600 12010KT 6SM -RA OVC050
     FM171900 14009KT 4SM -RA OVC015
     FM180200 14007KT 3SM BR OVC007
     FM180600 15006KT 1SM -DZ BR OVC003=



000
FTUS44 KOUN 171147
TAFOKC
TAF
KOKC 171147Z 1712/1812 14006KT P6SM VCSH OVC060
     FM171600 12010KT 6SM -RA OVC050
     FM171900 14009KT 4SM -RA OVC015
     FM180200 14007KT 3SM BR OVC007
     FM180600 15006KT 1SM -DZ BR OVC003=



000
FTUS44 KOUN 171147
TAFWWR
TAF
KWWR 171147Z 1712/1812 15010KT P6SM OVC050
     FM171600 15012KT P6SM VCSH OVC025
     FM172300 16011KT P6SM OVC015
     FM180200 16008KT 5SM BR OVC010
     FM180600 14009KT 4SM BR OVC007=



000
FTUS44 KOUN 171147
TAFGAG
TAF
KGAG 171147Z 1712/1812 17012KT P6SM OVC050
     FM171600 15012KT P6SM VCSH OVC025
     FM172300 16011KT P6SM OVC015
     FM180200 16008KT 5SM BR OVC010
     FM180600 14009KT 4SM BR OVC007=



000
FTUS44 KOUN 171147
TAFOUN
TAF
KOUN 171147Z 1712/1812 15004KT P6SM OVC070
     FM171600 12010KT 6SM -RA OVC050
     FM171900 14009KT 4SM -RA OVC015
     FM180200 14007KT 3SM BR OVC007
     FM180600 15006KT 1SM -DZ BR OVC003=



000
FTUS44 KOUN 171147
TAFPNC
TAF
KPNC 171147Z 1712/1812 10007KT P6SM VCSH BKN080
     FM172000 12008KT 6SM -RA BKN035 OVC250
      TEMPO 1722/1802 4SM -RA OVC015
     FM180200 11009KT 3SM -DZ BR OVC010
     FM180400 11009KT 1SM -DZ BR OVC004=



000
FTUS44 KOUN 170520
TAFOUN
TAF
KOUN 170520Z 1706/1806 VRB04KT P6SM SCT070 OVC250
     FM171100 14008KT P6SM BKN050 OVC250 PROB30 1716/1722 3SM -RA BR
      OVC015
     FM172200 12009KT P6SM OVC010 PROB30 1722/1804 5SM -RA BR=



000
FTUS44 KOUN 170520
TAFOKC
TAF
KOKC 170520Z 1706/1806 VRB05KT P6SM SCT070 OVC250
     FM171100 14008KT P6SM BKN050 OVC250 PROB30 1716/1722 3SM -RA BR
      OVC015
     FM172200 12009KT P6SM OVC010 PROB30 1722/1804 5SM -RA BR=



000
FTUS44 KOUN 170520
TAFOUN
TAF
KOUN 170520Z 1706/1806 VRB04KT P6SM SCT070 OVC250
     FM171100 14008KT P6SM BKN050 OVC250 PROB30 1716/1722 3SM -RA BR
      OVC015
     FM172200 12009KT P6SM OVC010 PROB30 1722/1804 5SM -RA BR=



000
FTUS44 KOUN 170520
TAFOKC
TAF
KOKC 170520Z 1706/1806 VRB05KT P6SM SCT070 OVC250
     FM171100 14008KT P6SM BKN050 OVC250 PROB30 1716/1722 3SM -RA BR
      OVC015
     FM172200 12009KT P6SM OVC010 PROB30 1722/1804 5SM -RA BR=



000
FTUS44 KOUN 170520
TAFLAW
TAF
KLAW 170520Z 1706/1806 VRB04KT P6SM SCT050 BKN250
     FM170800 09006KT P6SM OVC050 PROB30 1715/1717 5SM -RA OVC020
     FM171700 15011KT P6SM OVC020
      TEMPO 1717/1721 3SM -RA BR OVC010
     FM172100 11008KT P6SM OVC010=



000
FTUS44 KOUN 170520
TAFWWR
TAF
KWWR 170520Z 1706/1806 12007KT P6SM OVC050
     FM171200 17013KT P6SM OVC030
     FM172000 16014KT P6SM OVC015 PROB30 1720/1802 5SM -RA OVC010=



000
FTUS44 KOUN 170520
TAFSPS
TAF
KSPS 170520Z 1706/1806 VRB04KT P6SM OVC080
     FM171000 10007KT P6SM OVC030
     FM171600 14012KT P6SM OVC015
      TEMPO 1716/1720 2SM RA BR OVC010
     FM172000 12008KT P6SM OVC010 PROB30 1720/1802 4SM -RA BR
      OVC007=



000
FTUS44 KOUN 170520
TAFHBR
TAF
KHBR 170520Z 1706/1806 11007KT P6SM BKN060 OVC250
     FM170900 15012KT P6SM OVC030 PROB30 1715/1721 3SM -RA OVC010
     FM172200 12009KT P6SM OVC010=



000
FTUS44 KOUN 170520
TAFGAG
TAF
KGAG 170520Z 1706/1806 13006KT P6SM OVC050
     FM171200 17013KT P6SM OVC030
     FM172000 16014KT P6SM OVC015 PROB30 1720/1802 5SM -RA BR
      OVC010=



000
FTUS44 KOUN 170520
TAFWWR
TAF
KWWR 170520Z 1706/1806 12007KT P6SM OVC050
     FM171200 17013KT P6SM OVC030
     FM172000 16014KT P6SM OVC015 PROB30 1720/1802 5SM -RA OVC010=



000
FTUS44 KOUN 170520
TAFPNC
TAF
KPNC 170520Z 1706/1806 VRB04KT P6SM SCT070 OVC250
     FM171300 12008KT P6SM BKN050 OVC250 PROB30 1719/1801 5SM -RA
      OVC015
     FM180100 11009KT P6SM OVC010 PROB30 1801/1806 2SM -DZ BR=



000
FTUS44 KOUN 170520
TAFHBR
TAF
KHBR 170520Z 1706/1806 11007KT P6SM BKN060 OVC250
     FM170900 15012KT P6SM OVC030 PROB30 1715/1721 3SM -RA OVC010
     FM172200 12009KT P6SM OVC010=



000
FTUS44 KOUN 170520
TAFPNC
TAF
KPNC 170520Z 1706/1806 VRB04KT P6SM SCT070 OVC250
     FM171300 12008KT P6SM BKN050 OVC250 PROB30 1719/1801 5SM -RA
      OVC015
     FM180100 11009KT P6SM OVC010 PROB30 1801/1806 2SM -DZ BR=



000
FTUS44 KOUN 170520
TAFGAG
TAF
KGAG 170520Z 1706/1806 13006KT P6SM OVC050
     FM171200 17013KT P6SM OVC030
     FM172000 16014KT P6SM OVC015 PROB30 1720/1802 5SM -RA BR
      OVC010=



000
FTUS44 KOUN 170520
TAFSPS
TAF
KSPS 170520Z 1706/1806 VRB04KT P6SM OVC080
     FM171000 10007KT P6SM OVC030
     FM171600 14012KT P6SM OVC015
      TEMPO 1716/1720 2SM RA BR OVC010
     FM172000 12008KT P6SM OVC010 PROB30 1720/1802 4SM -RA BR
      OVC007=



000
FTUS44 KOUN 170520
TAFLAW
TAF
KLAW 170520Z 1706/1806 VRB04KT P6SM SCT050 BKN250
     FM170800 09006KT P6SM OVC050 PROB30 1715/1717 5SM -RA OVC020
     FM171700 15011KT P6SM OVC020
      TEMPO 1717/1721 3SM -RA BR OVC010
     FM172100 11008KT P6SM OVC010=



000
FTUS44 KOUN 162324
TAFOKC
TAF
KOKC 162324Z 1700/1724 VRB05KT P6SM SCT100 BKN250
     FM171100 14008KT P6SM BKN050 PROB30 1718/1724 4SM -RA BR
      OVC015=



000
FTUS44 KOUN 162324
TAFOKC
TAF
KOKC 162324Z 1700/1724 VRB05KT P6SM SCT100 BKN250
     FM171100 14008KT P6SM BKN050 PROB30 1718/1724 4SM -RA BR
      OVC015=



000
FTUS44 KOUN 162324
TAFSPS
TAF
KSPS 162324Z 1700/1724 VRB04KT P6SM BKN250
     FM170100 10007KT P6SM OVC040 PROB30 1712/1716 5SM -RA OVC020
     FM171600 14012KT P6SM OVC020
      TEMPO 1716/1720 2SM RA BR OVC010=



000
FTUS44 KOUN 162324
TAFLAW
TAF
KLAW 162324Z 1700/1724 VRB04KT P6SM SCT050 BKN250
     FM170700 10006KT P6SM OVC040 PROB30 1712/1717 5SM -RA OVC020
     FM171700 14011KT P6SM OVC020
      TEMPO 1717/1721 3SM -RA BR OVC010=



000
FTUS44 KOUN 162324
TAFOUN
TAF
KOUN 162324Z 1700/1724 VRB04KT P6SM SCT100 BKN250
     FM171100 14008KT P6SM BKN050 PROB30 1718/1724 4SM -RA BR
      OVC015=



000
FTUS44 KOUN 162324
TAFWWR
TAF
KWWR 162324Z 1700/1724 VRB04KT P6SM SCT100 BKN250
     FM171200 15013KT P6SM OVC025 PROB30 1719/1724 5SM -RA OVC010=



000
FTUS44 KOUN 162324
TAFGAG
TAF
KGAG 162324Z 1700/1724 VRB04KT P6SM SCT100 BKN250
     FM171200 15013KT P6SM OVC025 PROB30 1719/1724 5SM -RA OVC010=



000
FTUS44 KOUN 162324
TAFHBR
TAF
KHBR 162324Z 1700/1724 VRB04KT P6SM BKN250
     FM171000 15012KT P6SM OVC030 PROB30 1715/1721 3SM -RA OVC010=



000
FTUS44 KOUN 162324
TAFWWR
TAF
KWWR 162324Z 1700/1724 VRB04KT P6SM SCT100 BKN250
     FM171200 15013KT P6SM OVC025 PROB30 1719/1724 5SM -RA OVC010=



000
FTUS44 KOUN 162324
TAFHBR
TAF
KHBR 162324Z 1700/1724 VRB04KT P6SM BKN250
     FM171000 15012KT P6SM OVC030 PROB30 1715/1721 3SM -RA OVC010=



000
FTUS44 KOUN 162324
TAFOUN
TAF
KOUN 162324Z 1700/1724 VRB04KT P6SM SCT100 BKN250
     FM171100 14008KT P6SM BKN050 PROB30 1718/1724 4SM -RA BR
      OVC015=



000
FTUS44 KOUN 162324
TAFPNC
TAF
KPNC 162324Z 1700/1724 VRB04KT P6SM SCT100 BKN250
     FM171400 12008KT P6SM BKN050 OVC250 PROB30 1719/1724 5SM -RA
      OVC015=



000
FTUS44 KOUN 162324
TAFLAW
TAF
KLAW 162324Z 1700/1724 VRB04KT P6SM SCT050 BKN250
     FM170700 10006KT P6SM OVC040 PROB30 1712/1717 5SM -RA OVC020
     FM171700 14011KT P6SM OVC020
      TEMPO 1717/1721 3SM -RA BR OVC010=



000
FTUS44 KOUN 162324
TAFGAG
TAF
KGAG 162324Z 1700/1724 VRB04KT P6SM SCT100 BKN250
     FM171200 15013KT P6SM OVC025 PROB30 1719/1724 5SM -RA OVC010=



000
FTUS44 KOUN 162324
TAFPNC
TAF
KPNC 162324Z 1700/1724 VRB04KT P6SM SCT100 BKN250
     FM171400 12008KT P6SM BKN050 OVC250 PROB30 1719/1724 5SM -RA
      OVC015=



000
FTUS44 KOUN 162324
TAFSPS
TAF
KSPS 162324Z 1700/1724 VRB04KT P6SM BKN250
     FM170100 10007KT P6SM OVC040 PROB30 1712/1716 5SM -RA OVC020
     FM171600 14012KT P6SM OVC020
      TEMPO 1716/1720 2SM RA BR OVC010=



000
FTUS44 KOUN 161733
TAFLAW
TAF
KLAW 161733Z 1618/1718 36009KT P6SM SCT250
     FM170100 VRB04KT P6SM SCT250
     FM171000 07008KT P6SM OVC040
      TEMPO 1715/1718 -RA OVC030=



000
FTUS44 KOUN 161733
TAFSPS
TAF
KSPS 161733Z 1618/1718 36009KT P6SM SCT250
     FM170100 VRB04KT P6SM SCT250
     FM170900 07008KT P6SM OVC040
      TEMPO 1714/1718 -RA OVC030=



000
FTUS44 KOUN 161733
TAFWWR
TAF
KWWR 161733Z 1618/1718 34008KT P6SM SCT250
     FM162100 03004KT P6SM SCT250
     FM170200 14006KT P6SM SCT250
     FM171200 15011KT P6SM OVC025=



000
FTUS44 KOUN 161733
TAFGAG
TAF
KGAG 161733Z 1618/1718 34007KT P6SM SCT250
     FM162100 03004KT P6SM SCT250
     FM170200 14006KT P6SM SCT250
     FM171200 15011KT P6SM OVC025=



000
FTUS44 KOUN 161733
TAFOKC
TAF
KOKC 161733Z 1618/1718 35012KT P6SM SCT250
     FM170100 VRB04KT P6SM SCT250
     FM170900 12006KT P6SM BKN050=



000
FTUS44 KOUN 161733
TAFHBR
TAF
KHBR 161733Z 1618/1718 01010KT P6SM SCT250
     FM170100 10005KT P6SM SCT250
     FM170700 15006KT P6SM BKN250
     FM171000 15011KT P6SM OVC035=



000
FTUS44 KOUN 161733
TAFOUN
TAF
KOUN 161733Z 1618/1718 36010KT P6SM SCT250
     FM170100 VRB04KT P6SM SCT250
     FM170900 12006KT P6SM BKN050=



000
FTUS44 KOUN 161733
TAFPNC
TAF
KPNC 161733Z 1618/1718 32011KT P6SM FEW030
     FM170100 VRB04KT P6SM BKN250
     FM170900 06004KT P6SM SCT050 OVC250=



000
FTUS44 KOUN 161733
TAFLAW
TAF
KLAW 161733Z 1618/1718 36009KT P6SM SCT250
     FM170100 VRB04KT P6SM SCT250
     FM171000 07008KT P6SM OVC040
      TEMPO 1715/1718 -RA OVC030=



000
FTUS44 KOUN 161733
TAFOKC
TAF
KOKC 161733Z 1618/1718 35012KT P6SM SCT250
     FM170100 VRB04KT P6SM SCT250
     FM170900 12006KT P6SM BKN050=



000
FTUS44 KOUN 161733
TAFPNC
TAF
KPNC 161733Z 1618/1718 32011KT P6SM FEW030
     FM170100 VRB04KT P6SM BKN250
     FM170900 06004KT P6SM SCT050 OVC250=



000
FTUS44 KOUN 161733
TAFSPS
TAF
KSPS 161733Z 1618/1718 36009KT P6SM SCT250
     FM170100 VRB04KT P6SM SCT250
     FM170900 07008KT P6SM OVC040
      TEMPO 1714/1718 -RA OVC030=



000
FTUS44 KOUN 161733
TAFOUN
TAF
KOUN 161733Z 1618/1718 36010KT P6SM SCT250
     FM170100 VRB04KT P6SM SCT250
     FM170900 12006KT P6SM BKN050=



000
FTUS44 KOUN 161733
TAFGAG
TAF
KGAG 161733Z 1618/1718 34007KT P6SM SCT250
     FM162100 03004KT P6SM SCT250
     FM170200 14006KT P6SM SCT250
     FM171200 15011KT P6SM OVC025=



000
FTUS44 KOUN 161733
TAFHBR
TAF
KHBR 161733Z 1618/1718 01010KT P6SM SCT250
     FM170100 10005KT P6SM SCT250
     FM170700 15006KT P6SM BKN250
     FM171000 15011KT P6SM OVC035=



000
FTUS44 KOUN 161733
TAFWWR
TAF
KWWR 161733Z 1618/1718 34008KT P6SM SCT250
     FM162100 03004KT P6SM SCT250
     FM170200 14006KT P6SM SCT250
     FM171200 15011KT P6SM OVC025=



000
FTUS44 KOUN 161123
TAFGAG
TAF
KGAG 161123Z 1612/1712 30009KT P6SM SKC
     FM161800 34009KT P6SM SCT250
     FM170000 15006KT P6SM SCT250=



000
FTUS44 KOUN 161123
TAFHBR
TAF
KHBR 161123Z 1612/1712 34011KT P6SM SKC
     FM162100 01008KT P6SM SCT250
     FM170000 11005KT P6SM BKN250=



000
FTUS44 KOUN 161123
TAFOUN
TAF
KOUN 161123Z 1612/1712 32008KT P6SM SKC
     FM161300 32011KT P6SM SCT030
      TEMPO 1613/1615 BKN030
     FM162100 34007KT P6SM SCT250
     FM170600 12005KT P6SM BKN250=



000
FTUS44 KOUN 161123
TAFOKC
TAF
KOKC 161123Z 1612/1712 32009KT P6SM SKC
     FM161300 32011KT P6SM SCT030
      TEMPO 1613/1615 BKN030
     FM162100 34007KT P6SM SCT250
     FM170600 12005KT P6SM BKN250=



000
FTUS44 KOUN 161123
TAFOUN
TAF
KOUN 161123Z 1612/1712 32008KT P6SM SKC
     FM161300 32011KT P6SM SCT030
      TEMPO 1613/1615 BKN030
     FM162100 34007KT P6SM SCT250
     FM170600 12005KT P6SM BKN250=



000
FTUS44 KOUN 161123
TAFSPS
TAF
KSPS 161123Z 1612/1712 31008KT P6SM SCT250
     FM162300 04005KT P6SM SCT250
     FM170800 13005KT P6SM OVC120=



000
FTUS44 KOUN 161123
TAFLAW
TAF
KLAW 161123Z 1612/1712 34010KT P6SM SCT250
     FM170200 04004KT P6SM BKN250
     FM170800 12003KT P6SM OVC120=



000
FTUS44 KOUN 161123
TAFLAW
TAF
KLAW 161123Z 1612/1712 34010KT P6SM SCT250
     FM170200 04004KT P6SM BKN250
     FM170800 12003KT P6SM OVC120=



000
FTUS44 KOUN 161123
TAFPNC
TAF
KPNC 161123Z 1612/1712 33013KT P6SM OVC028
      TEMPO 1616/1617 SCT030
     FM161700 33010G16KT P6SM SCT030
     FM162000 33010KT P6SM FEW250=



000
FTUS44 KOUN 161123
TAFWWR
TAF
KWWR 161123Z 1612/1712 31009KT P6SM SKC
     FM161900 33005KT P6SM SCT250
     FM170000 14006KT P6SM SCT250=



000
FTUS44 KOUN 161123
TAFGAG
TAF
KGAG 161123Z 1612/1712 30009KT P6SM SKC
     FM161800 34009KT P6SM SCT250
     FM170000 15006KT P6SM SCT250=



000
FTUS44 KOUN 161123
TAFWWR
TAF
KWWR 161123Z 1612/1712 31009KT P6SM SKC
     FM161900 33005KT P6SM SCT250
     FM170000 14006KT P6SM SCT250=



000
FTUS44 KOUN 161123
TAFHBR
TAF
KHBR 161123Z 1612/1712 34011KT P6SM SKC
     FM162100 01008KT P6SM SCT250
     FM170000 11005KT P6SM BKN250=



000
FTUS44 KOUN 161123
TAFPNC
TAF
KPNC 161123Z 1612/1712 33013KT P6SM OVC028
      TEMPO 1616/1617 SCT030
     FM161700 33010G16KT P6SM SCT030
     FM162000 33010KT P6SM FEW250=



000
FTUS44 KOUN 161123
TAFSPS
TAF
KSPS 161123Z 1612/1712 31008KT P6SM SCT250
     FM162300 04005KT P6SM SCT250
     FM170800 13005KT P6SM OVC120=



000
FTUS44 KOUN 161123
TAFOKC
TAF
KOKC 161123Z 1612/1712 32009KT P6SM SKC
     FM161300 32011KT P6SM SCT030
      TEMPO 1613/1615 BKN030
     FM162100 34007KT P6SM SCT250
     FM170600 12005KT P6SM BKN250=



000
FTUS44 KOUN 161042 AAA
TAFPNC
TAF AMD
KPNC 161042Z 1611/1706 32012G20KT P6SM OVC025
     FM161600 33010G16KT P6SM SCT030
     FM162300 VRB05KT P6SM BKN250=



000
FTUS44 KOUN 161042 AAA
TAFPNC
TAF AMD
KPNC 161042Z 1611/1706 32012G20KT P6SM OVC025
     FM161600 33010G16KT P6SM SCT030
     FM162300 VRB05KT P6SM BKN250=



000
FTUS44 KOUN 160520
TAFSPS
TAF
KSPS 160520Z 1606/1706 33014KT P6SM FEW250
     FM162300 04005KT P6SM SCT250=



000
FTUS44 KOUN 160520
TAFOUN
TAF
KOUN 160520Z 1606/1706 32016G25KT P6SM FEW050 SCT250
     FM162100 03005KT P6SM SCT250=



000
FTUS44 KOUN 160520
TAFWWR
TAF
KWWR 160520Z 1606/1706 30012G22KT P6SM SCT250
     FM161900 28005KT P6SM SCT250
     FM170000 16006KT P6SM SCT250=



000
FTUS44 KOUN 160520
TAFOKC
TAF
KOKC 160520Z 1606/1706 32016G25KT P6SM FEW050 SCT250
     FM162100 03005KT P6SM SCT250=



000
FTUS44 KOUN 160520
TAFLAW
TAF
KLAW 160520Z 1606/1706 32013G25KT P6SM SKC
     FM161200 35009KT P6SM FEW250
     FM162300 VRB04KT P6SM SCT250=



000
FTUS44 KOUN 160520
TAFPNC
TAF
KPNC 160520Z 1606/1706 31014G24KT P6SM BKN030
     FM161000 32012KT P6SM SCT035
     FM162300 VRB05KT P6SM BKN250=



000
FTUS44 KOUN 160520
TAFGAG
TAF
KGAG 160520Z 1606/1706 32013G23KT P6SM SCT250
     FM161800 28005KT P6SM SCT250
     FM170000 16006KT P6SM SCT250=



000
FTUS44 KOUN 160520
TAFWWR
TAF
KWWR 160520Z 1606/1706 30012G22KT P6SM SCT250
     FM161900 28005KT P6SM SCT250
     FM170000 16006KT P6SM SCT250=



000
FTUS44 KOUN 160520
TAFPNC
TAF
KPNC 160520Z 1606/1706 31014G24KT P6SM BKN030
     FM161000 32012KT P6SM SCT035
     FM162300 VRB05KT P6SM BKN250=



000
FTUS44 KOUN 160520
TAFOKC
TAF
KOKC 160520Z 1606/1706 32016G25KT P6SM FEW050 SCT250
     FM162100 03005KT P6SM SCT250=



000
FTUS44 KOUN 160520
TAFLAW
TAF
KLAW 160520Z 1606/1706 32013G25KT P6SM SKC
     FM161200 35009KT P6SM FEW250
     FM162300 VRB04KT P6SM SCT250=



000
FTUS44 KOUN 160520
TAFHBR
TAF
KHBR 160520Z 1606/1706 33015G25KT P6SM FEW250
     FM162100 01008KT P6SM FEW250
     FM170000 11005KT P6SM SCT250=



000
FTUS44 KOUN 160520
TAFOUN
TAF
KOUN 160520Z 1606/1706 32016G25KT P6SM FEW050 SCT250
     FM162100 03005KT P6SM SCT250=



000
FTUS44 KOUN 160520
TAFSPS
TAF
KSPS 160520Z 1606/1706 33014KT P6SM FEW250
     FM162300 04005KT P6SM SCT250=



000
FTUS44 KOUN 160520
TAFGAG
TAF
KGAG 160520Z 1606/1706 32013G23KT P6SM SCT250
     FM161800 28005KT P6SM SCT250
     FM170000 16006KT P6SM SCT250=



000
FTUS44 KOUN 160520
TAFHBR
TAF
KHBR 160520Z 1606/1706 33015G25KT P6SM FEW250
     FM162100 01008KT P6SM FEW250
     FM170000 11005KT P6SM SCT250=



000
FTUS44 KOUN 152323
TAFOKC
TAF
KOKC 152323Z 1600/1624 32012KT P6SM FEW040
     FM162100 02008KT P6SM SCT250=



000
FTUS44 KOUN 152323
TAFOUN
TAF
KOUN 152323Z 1600/1624 32012KT P6SM SKC
     FM162100 03008KT P6SM SCT250=



000
FTUS44 KOUN 152323
TAFSPS
TAF
KSPS 152323Z 1600/1624 32010KT P6SM SKC=



000
FTUS44 KOUN 152323
TAFPNC
TAF
KPNC 152323Z 1600/1624 30012KT P6SM OVC040
     FM160700 31011KT P6SM SCT040
     FM162000 36007KT P6SM SCT250=



000
FTUS44 KOUN 152323
TAFLAW
TAF
KLAW 152323Z 1600/1624 32014G25KT P6SM SKC
     FM160100 33009KT P6SM SKC
     FM162200 01005KT P6SM SKC=



000
FTUS44 KOUN 152323
TAFHBR
TAF
KHBR 152323Z 1600/1624 32018G29KT P6SM SKC
     FM160100 33012KT P6SM SKC
     FM162200 01008KT P6SM FEW250=



000
FTUS44 KOUN 152323
TAFGAG
TAF
KGAG 152323Z 1600/1624 32021G33KT P6SM FEW040
     FM160100 34012KT P6SM SCT250
     FM161800 04005KT P6SM SCT250=



000
FTUS44 KOUN 152323
TAFWWR
TAF
KWWR 152323Z 1600/1624 31020G33KT P6SM FEW040
     FM160100 33012KT P6SM SCT250
     FM161900 04006KT P6SM SCT250=



000
FTUS44 KOUN 152323
TAFLAW
TAF
KLAW 152323Z 1600/1624 32014G25KT P6SM SKC
     FM160100 33009KT P6SM SKC
     FM162200 01005KT P6SM SKC=



000
FTUS44 KOUN 152323
TAFGAG
TAF
KGAG 152323Z 1600/1624 32021G33KT P6SM FEW040
     FM160100 34012KT P6SM SCT250
     FM161800 04005KT P6SM SCT250=



000
FTUS44 KOUN 152323
TAFSPS
TAF
KSPS 152323Z 1600/1624 32010KT P6SM SKC=



000
FTUS44 KOUN 152323
TAFPNC
TAF
KPNC 152323Z 1600/1624 30012KT P6SM OVC040
     FM160700 31011KT P6SM SCT040
     FM162000 36007KT P6SM SCT250=



000
FTUS44 KOUN 152323
TAFOKC
TAF
KOKC 152323Z 1600/1624 32012KT P6SM FEW040
     FM162100 02008KT P6SM SCT250=



000
FTUS44 KOUN 152323
TAFOUN
TAF
KOUN 152323Z 1600/1624 32012KT P6SM SKC
     FM162100 03008KT P6SM SCT250=



000
FTUS44 KOUN 152323
TAFHBR
TAF
KHBR 152323Z 1600/1624 32018G29KT P6SM SKC
     FM160100 33012KT P6SM SKC
     FM162200 01008KT P6SM FEW250=



000
FTUS44 KOUN 152323
TAFWWR
TAF
KWWR 152323Z 1600/1624 31020G33KT P6SM FEW040
     FM160100 33012KT P6SM SCT250
     FM161900 04006KT P6SM SCT250=



    US Dept of Commerce
    National Oceanic and Atmospheric Administration
    National Weather Service
    1325 East West Highway
    Silver Spring, MD 20910
    Page Author: NWS Internet Services Team
Disclaimer
Information Quality
Credits
Glossary
Privacy Policy
Freedom of Information Act (FOIA)
About Us
Career Opportunities